Time;durP1;ratioP1;P1;durP2;ratioP2;P2;SDS_P1;SDS_P2;PMS_P1;PMS_P2;Temp;Humidity;BMP_temperature;BMP_pressure;BME280_temperature;BME280_humidity;BME280_pressure;Samples;Min_cycle;Max_cycle;Signal;HPM_P1;HPM_P2
2024/04/10 00:00:51;;;;;;;3.17;0.88;;;;;;;6.82;100.00;97397.19;5433731;26;19999;-67
2024/04/10 00:03:16;;;;;;;2.65;1.50;;;;;;;6.70;100.00;97392.44;5456832;26;20439;-66
2024/04/10 00:05:43;;;;;;;1.55;0.90;;;;;;;6.51;100.00;97396.28;5444046;26;20034;-67
2024/04/10 00:08:08;;;;;;;2.65;1.30;;;;;;;6.66;100.00;97394.16;5428262;26;19999;-66
2024/04/10 00:10:34;;;;;;;25.85;7.47;;;;;;;6.78;100.00;97405.19;5460837;26;19999;-66
2024/04/10 00:12:59;;;;;;;15.40;5.30;;;;;;;6.95;100.00;97409.00;5431765;26;19999;-68
2024/04/10 00:15:24;;;;;;;6.80;2.40;;;;;;;7.00;100.00;97397.91;5441288;26;20003;-67
2024/04/10 00:17:50;;;;;;;10.95;2.22;;;;;;;7.03;100.00;97405.44;5445502;26;19998;-68
2024/04/10 00:20:15;;;;;;;8.45;2.88;;;;;;;6.94;100.00;97404.69;5462141;26;20071;-66
2024/04/10 00:22:41;;;;;;;5.43;1.70;;;;;;;6.93;100.00;97409.31;5441955;26;20030;-67
2024/04/10 00:25:07;;;;;;;6.53;1.40;;;;;;;6.86;100.00;97415.28;5441946;26;20014;-66
2024/04/10 00:27:32;;;;;;;1.00;0.80;;;;;;;6.83;100.00;97410.47;5408426;26;20467;-67
2024/04/10 00:29:57;;;;;;;2.60;0.93;;;;;;;6.81;100.00;97401.84;5455551;26;20002;-66
2024/04/10 00:32:25;;;;;;;6.43;1.77;;;;;;;6.79;100.00;97412.25;5394310;26;20013;-66
2024/04/10 00:34:50;;;;;;;15.40;3.45;;;;;;;6.80;100.00;97404.88;5432447;26;20423;-67
2024/04/10 00:37:16;;;;;;;6.43;1.80;;;;;;;6.66;100.00;97403.16;5404965;26;20010;-67
2024/04/10 00:39:41;;;;;;;6.82;1.50;;;;;;;6.67;100.00;97404.75;5433124;26;20007;-67
2024/04/10 00:42:07;;;;;;;2.38;1.00;;;;;;;6.65;100.00;97407.00;5442099;26;20012;-66
2024/04/10 00:44:32;;;;;;;11.05;2.05;;;;;;;6.76;100.00;97406.66;5454188;26;20327;-67
2024/04/10 00:46:57;;;;;;;5.72;1.27;;;;;;;6.82;100.00;97408.06;5470891;26;19994;-67
2024/04/10 00:49:23;;;;;;;2.78;1.20;;;;;;;6.78;100.00;97416.09;5481361;26;20547;-69
2024/04/10 00:51:49;;;;;;;7.40;2.03;;;;;;;6.77;100.00;97416.41;5462506;26;19995;-65
2024/04/10 00:54:17;;;;;;;8.05;2.00;;;;;;;6.71;100.00;97423.94;5447516;26;20009;-68
2024/04/10 00:56:43;;;;;;;2.42;1.05;;;;;;;6.60;100.00;97428.13;5454281;26;20009;-68
2024/04/10 00:59:08;;;;;;;4.68;0.95;;;;;;;6.57;100.00;97426.06;5448523;26;19998;-67
2024/04/10 01:01:34;;;;;;;1.48;0.80;;;;;;;6.56;100.00;97425.25;5446488;26;19994;-68
2024/04/10 01:03:59;;;;;;;1.67;0.80;;;;;;;6.65;100.00;97425.25;5461589;26;19998;-67
2024/04/10 01:06:30;;;;;;;2.83;0.90;;;;;;;6.69;100.00;97423.47;5441023;26;20093;-68
2024/04/10 01:08:58;;;;;;;3.00;0.80;;;;;;;6.68;100.00;97427.31;5430446;26;20014;-67
2024/04/10 01:11:24;;;;;;;6.18;1.60;;;;;;;6.74;100.00;97419.81;5408395;26;20011;-67
2024/04/10 01:13:50;;;;;;;6.55;1.60;;;;;;;6.69;100.00;97421.53;5429695;26;19994;-66
2024/04/10 01:16:15;;;;;;;3.72;1.20;;;;;;;6.61;100.00;97414.22;5413369;26;20013;-66
2024/04/10 01:18:40;;;;;;;9.20;1.63;;;;;;;6.56;100.00;97411.66;5443794;26;20007;-66
2024/04/10 01:21:06;;;;;;;6.15;1.30;;;;;;;6.63;100.00;97411.97;5443195;26;19995;-66
2024/04/10 01:23:31;;;;;;;3.15;1.10;;;;;;;6.59;100.00;97410.19;5467884;26;20006;-67
2024/04/10 01:25:57;;;;;;;6.05;1.17;;;;;;;6.69;100.00;97421.53;5468234;26;20006;-67
2024/04/10 01:28:22;;;;;;;15.02;4.43;;;;;;;6.63;100.00;97424.78;5444474;26;19998;-68
2024/04/10 01:30:47;;;;;;;10.50;2.63;;;;;;;6.62;100.00;97426.69;5466894;26;19998;-67
2024/04/10 01:33:13;;;;;;;12.57;2.58;;;;;;;6.71;100.00;97434.84;5459095;26;20010;-67
2024/04/10 01:35:38;;;;;;;6.43;1.40;;;;;;;6.63;100.00;97439.19;5402173;26;19998;-67
2024/04/10 01:38:04;;;;;;;5.55;1.60;;;;;;;6.73;100.00;97437.25;5409579;26;20032;-67
2024/04/10 01:40:29;;;;;;;12.60;2.80;;;;;;;6.52;100.00;97429.75;5438315;26;20071;-67
2024/04/10 01:42:55;;;;;;;6.70;2.25;;;;;;;6.64;100.00;97434.53;5445869;26;20006;-68
2024/04/10 01:45:20;;;;;;;5.38;1.85;;;;;;;6.73;100.00;97434.53;5443021;26;20479;-67
2024/04/10 01:47:46;;;;;;;3.05;1.15;;;;;;;6.62;100.00;97434.84;5413578;26;19999;-67
2024/04/10 01:50:11;;;;;;;4.28;1.20;;;;;;;6.58;100.00;97435.84;5395859;26;20038;-66
2024/04/10 01:52:36;;;;;;;5.05;1.60;;;;;;;6.67;100.00;97433.91;5459401;26;20014;-66
2024/04/10 01:55:03;;;;;;;9.82;2.30;;;;;;;6.66;100.00;97424.94;5457155;26;20013;-65
2024/04/10 01:57:28;;;;;;;3.30;0.80;;;;;;;6.61;100.00;97429.72;5447577;26;20011;-66
2024/04/10 01:59:54;;;;;;;5.07;0.90;;;;;;;6.47;100.00;97422.56;5458131;26;20013;-66
2024/04/10 02:02:19;;;;;;;4.90;1.52;;;;;;;6.42;100.00;97428.16;5459038;26;19998;-66
2024/04/10 02:04:45;;;;;;;3.80;1.10;;;;;;;6.39;100.00;97428.00;5464414;26;20579;-66
2024/04/10 02:07:11;;;;;;;9.93;1.80;;;;;;;6.46;100.00;97417.44;5455720;26;20814;-67
2024/04/10 02:09:36;;;;;;;17.17;2.80;;;;;;;6.59;100.00;97421.91;5465406;26;20006;-68
2024/04/10 02:12:02;;;;;;;11.32;2.90;;;;;;;6.59;100.00;97421.91;5446044;26;19998;-66
2024/04/10 02:14:32;;;;;;;4.03;1.10;;;;;;;6.55;100.00;97423.66;5465647;26;20017;-67
2024/04/10 02:16:58;;;;;;;;;;;;;;;6.54;100.00;97422.06;5470135;26;20002;-66
2024/04/10 02:19:24;;;;;;;6.95;2.05;;;;;;;6.54;100.00;97427.50;5457055;26;19924;-67
2024/04/10 02:21:49;;;;;;;5.95;1.63;;;;;;;6.47;100.00;97425.28;5447695;26;20009;-66
2024/04/10 02:24:15;;;;;;;3.78;0.93;;;;;;;6.56;100.00;97425.25;5444322;26;20042;-68
2024/04/10 02:26:40;;;;;;;6.05;0.80;;;;;;;6.59;100.00;97421.09;5436447;26;19995;-65
2024/04/10 02:29:09;;;;;;;4.45;1.30;;;;;;;6.56;100.00;97428.00;5428677;26;20014;-67
2024/04/10 02:31:35;;;;;;;5.00;1.55;;;;;;;6.65;100.00;97434.22;5406260;26;20100;-67
2024/04/10 02:34:01;;;;;;;13.93;2.97;;;;;;;6.69;100.00;97434.38;5463380;26;20008;-66
2024/04/10 02:36:26;;;;;;;16.60;3.97;;;;;;;6.60;100.00;97434.38;5464038;26;19998;-67
2024/04/10 02:38:52;;;;;;;9.43;2.05;;;;;;;6.62;100.00;97443.00;5458423;26;20048;-67
2024/04/10 02:41:17;;;;;;;5.93;1.17;;;;;;;6.60;100.00;97450.72;5461457;26;20015;-67
2024/04/10 02:43:42;;;;;;;5.60;1.85;;;;;;;6.55;100.00;97447.34;5470040;26;20103;-67
2024/04/10 02:46:08;;;;;;;10.48;2.92;;;;;;;6.50;100.00;97451.06;5448037;26;20451;-67
2024/04/10 02:48:34;;;;;;;9.90;1.45;;;;;;;6.45;100.00;97449.28;5419916;26;19999;-67
2024/04/10 02:50:59;;;;;;;2.55;1.10;;;;;;;6.50;100.00;97445.63;5462974;26;19998;-67
2024/04/10 02:53:25;;;;;;;3.47;1.05;;;;;;;6.45;100.00;97443.84;5461466;26;19998;-66
2024/04/10 02:55:52;;;;;;;2.53;0.70;;;;;;;6.50;100.00;97445.63;5467511;26;19999;-66
2024/04/10 02:58:18;;;;;;;3.90;1.30;;;;;;;6.56;100.00;97448.97;5460395;26;19998;-67
2024/04/10 03:00:44;;;;;;;5.13;1.45;;;;;;;6.57;100.00;97434.22;5460034;26;20070;-67
2024/04/10 03:03:09;;;;;;;3.00;1.13;;;;;;;6.53;100.00;97449.59;5441897;26;20044;-65
2024/04/10 03:05:35;;;;;;;6.53;1.10;;;;;;;6.37;100.00;97447.34;5471236;26;19998;-66
2024/04/10 03:08:00;;;;;;;4.05;1.10;;;;;;;6.35;100.00;97446.88;5470169;26;19998;-68
2024/04/10 03:10:26;;;;;;;3.10;1.08;;;;;;;6.36;100.00;97440.34;5462966;26;20437;-68
2024/04/10 03:12:51;;;;;;;8.25;1.55;;;;;;;6.31;100.00;97449.44;5469790;26;20870;-67
2024/04/10 03:15:16;;;;;;;8.13;1.27;;;;;;;6.39;100.00;97453.31;5433512;26;20080;-67
2024/04/10 03:17:42;;;;;;;4.93;1.30;;;;;;;6.30;100.00;97461.47;5424187;26;20039;-68
2024/04/10 03:20:08;;;;;;;3.53;0.98;;;;;;;6.31;100.00;97454.09;5432985;26;20010;-67
2024/04/10 03:22:34;;;;;;;3.63;1.25;;;;;;;6.28;100.00;97455.53;5412837;26;20018;-67
2024/04/10 03:25:00;;;;;;;1.90;0.80;;;;;;;6.29;100.00;97467.22;5447866;26;20787;-67
2024/04/10 03:27:25;;;;;;;3.08;1.00;;;;;;;6.36;100.00;97459.38;5430193;26;20352;-68
2024/04/10 03:29:50;;;;;;;1.90;0.90;;;;;;;6.34;100.00;97467.06;5443272;26;20000;-67
2024/04/10 03:32:16;;;;;;;3.13;0.90;;;;;;;6.31;100.00;97467.69;5422600;26;19999;-68
2024/04/10 03:34:41;;;;;;;1.42;0.80;;;;;;;6.27;100.00;97467.53;5460820;26;19998;-68
2024/04/10 03:37:06;;;;;;;1.95;1.15;;;;;;;6.21;100.00;97468.00;5486443;26;19990;-68
2024/04/10 03:39:32;;;;;;;3.17;0.98;;;;;;;6.19;100.00;97472.97;5491876;26;19998;-68
2024/04/10 03:41:57;;;;;;;5.10;1.10;;;;;;;6.24;100.00;97470.88;5491234;26;20047;-69
2024/04/10 03:44:23;;;;;;;1.63;1.05;;;;;;;6.35;100.00;97482.25;5460209;26;20438;-69
2024/04/10 03:46:48;;;;;;;1.25;0.80;;;;;;;6.35;100.00;97486.91;5468851;26;20006;-69
2024/04/10 03:49:13;;;;;;;17.17;8.95;;;;;;;6.37;100.00;97473.78;5460152;26;19995;-69
2024/04/10 03:51:39;;;;;;;3.63;1.33;;;;;;;6.41;100.00;97480.16;5450537;26;20334;-69
2024/04/10 03:54:04;;;;;;;1.55;0.75;;;;;;;6.42;100.00;97481.78;5463907;26;20083;-69
2024/04/10 03:56:30;;;;;;;1.80;0.80;;;;;;;6.46;100.00;97478.13;5445690;26;20009;-69
2024/04/10 03:58:55;;;;;;;3.25;1.00;;;;;;;6.46;100.00;97475.41;5474188;26;20009;-68
2024/04/10 04:01:21;;;;;;;4.07;0.90;;;;;;;6.44;100.00;97474.09;5466176;26;20448;-68
2024/04/10 04:03:46;;;;;;;1.08;0.85;;;;;;;6.41;100.00;97481.00;5471943;26;19998;-68
2024/04/10 04:06:12;;;;;;;1.27;0.80;;;;;;;6.39;100.00;97472.34;5466605;26;20006;-69
2024/04/10 04:08:37;;;;;;;1.70;0.90;;;;;;;6.52;100.00;97481.47;5442522;26;20010;-69
2024/04/10 04:11:04;;;;;;;3.53;1.50;;;;;;;6.51;100.00;97482.56;5458149;26;20017;-69
2024/04/10 04:13:30;;;;;;;1.85;1.00;;;;;;;6.52;100.00;97489.63;5471613;26;19995;-69
2024/04/10 04:15:56;;;;;;;4.93;1.20;;;;;;;6.47;100.00;97492.50;5441053;26;20036;-69
2024/04/10 04:18:21;;;;;;;2.50;1.65;;;;;;;6.39;100.00;97493.31;5461644;26;20880;-68
2024/04/10 04:20:48;;;;;;;5.22;2.30;;;;;;;6.37;100.00;97499.06;5437429;26;20351;-68
2024/04/10 04:23:14;;;;;;;5.43;2.03;;;;;;;6.34;100.00;97504.34;5466633;26;20013;-70
2024/04/10 04:25:39;;;;;;;2.55;1.58;;;;;;;6.30;100.00;97505.00;5473092;26;20023;-70
2024/04/10 04:28:05;;;;;;;4.43;1.50;;;;;;;6.29;100.00;97505.31;5462464;26;20005;-68
2024/04/10 04:30:30;;;;;;;7.00;2.40;;;;;;;6.31;100.00;97517.47;5465395;26;20006;-69
2024/04/10 04:32:55;;;;;;;6.18;1.58;;;;;;;6.24;100.00;97514.41;5446995;26;19998;-69
2024/04/10 04:35:21;;;;;;;6.15;1.60;;;;;;;6.24;100.00;97516.34;5463098;26;20541;-68
2024/04/10 04:37:55;;;;;;;3.70;1.30;;;;;;;6.27;100.00;97521.94;5462306;26;19999;-69
2024/04/10 04:40:20;;;;;;;1.92;1.25;;;;;;;6.33;100.00;97522.59;5446648;26;20038;-68
2024/04/10 04:42:45;;;;;;;2.33;1.15;;;;;;;6.51;100.00;97523.41;5469065;26;19998;-68
2024/04/10 04:45:11;;;;;;;2.92;1.10;;;;;;;6.47;100.00;97530.63;5447844;26;20010;-68
2024/04/10 04:47:37;;;;;;;1.80;1.00;;;;;;;6.44;100.00;97529.31;5435572;26;20007;-68
2024/04/10 04:50:02;;;;;;;1.63;1.10;;;;;;;6.54;100.00;97536.38;5440549;26;20178;-67
2024/04/10 04:52:28;;;;;;;5.90;1.70;;;;;;;6.54;100.00;97532.88;5455233;26;20403;-68
2024/04/10 04:54:54;;;;;;;3.10;0.88;;;;;;;6.47;100.00;97545.00;5451060;26;20326;-67
2024/04/10 04:57:20;;;;;;;1.60;1.10;;;;;;;6.47;100.00;97546.94;5430910;26;20070;-67
2024/04/10 04:59:46;;;;;;;1.95;1.02;;;;;;;6.48;100.00;97560.22;5451656;26;20018;-68
2024/04/10 05:02:11;;;;;;;3.30;1.10;;;;;;;6.59;100.00;97565.34;5449557;26;20452;-68
2024/04/10 05:04:57;;;;;;;2.35;1.15;;;;;;;6.50;100.00;97570.81;5444628;26;20544;-67
2024/04/10 05:07:23;;;;;;;2.67;1.17;;;;;;;6.39;100.00;97566.75;5406062;26;20427;-67
2024/04/10 05:09:52;;;;;;;1.63;1.23;;;;;;;6.36;100.00;97565.50;5421033;26;20450;-67
2024/04/10 05:12:18;;;;;;;3.40;1.30;;;;;;;6.36;100.00;97561.97;5460634;26;20002;-67
2024/04/10 05:14:56;;;;;;;6.78;1.33;;;;;;;6.39;100.00;97567.59;5468679;26;20038;-67
2024/04/10 05:17:21;;;;;;;3.13;1.17;;;;;;;6.57;100.00;97576.56;5461791;26;20043;-68
2024/04/10 05:19:47;;;;;;;1.02;0.90;;;;;;;6.64;100.00;97578.81;5460830;26;20010;-69
2024/04/10 05:22:15;;;;;;;2.83;1.02;;;;;;;6.69;100.00;97584.09;5419312;26;20017;-68
2024/04/10 05:24:41;;;;;;;2.78;1.52;;;;;;;6.73;100.00;97589.69;5469762;26;20073;-68
2024/04/10 05:27:09;;;;;;;5.75;1.80;;;;;;;6.68;100.00;97599.63;5460759;26;20009;-67
2024/04/10 05:29:35;;;;;;;5.55;1.30;;;;;;;6.56;100.00;97604.09;5462513;26;20007;-67
2024/04/10 05:32:00;;;;;;;1.80;1.02;;;;;;;6.50;100.00;97595.31;5458453;26;20074;-67
2024/04/10 05:34:26;;;;;;;3.38;1.33;;;;;;;6.58;100.00;97607.31;5443023;26;20425;-68
2024/04/10 05:36:51;;;;;;;3.28;1.27;;;;;;;6.61;100.00;97601.22;5434202;26;19995;-67
2024/04/10 05:39:23;;;;;;;2.13;1.30;;;;;;;6.39;100.00;97613.03;5454486;26;20006;-67
2024/04/10 05:41:49;;;;;;;21.60;11.57;;;;;;;6.25;100.00;97615.88;5436150;26;20013;-68
2024/04/10 05:44:14;;;;;;;7.32;2.33;;;;;;;6.38;100.00;97609.50;5445076;26;20382;-67
2024/04/10 05:46:39;;;;;;;3.65;1.75;;;;;;;6.67;100.00;97619.81;5455261;26;20013;-67
2024/04/10 05:49:09;;;;;;;4.15;1.40;;;;;;;6.89;100.00;97620.78;5467888;26;20013;-67
2024/04/10 05:51:35;;;;;;;4.72;1.17;;;;;;;6.88;100.00;97622.72;5471964;26;20119;-67
2024/04/10 05:54:00;;;;;;;4.28;1.38;;;;;;;6.88;100.00;97613.75;5445663;26;20014;-67
2024/04/10 05:56:25;;;;;;;3.85;1.67;;;;;;;6.91;100.00;97620.47;5465435;26;19998;-67
2024/04/10 05:58:51;;;;;;;5.25;2.70;;;;;;;6.35;100.00;97621.03;5466508;26;20019;-67
2024/04/10 06:01:16;;;;;;;9.73;5.93;;;;;;;6.24;100.00;97620.50;5452980;26;20002;-67
2024/04/10 06:03:45;;;;;;;8.90;5.07;;;;;;;6.26;100.00;97628.34;5487810;26;20005;-67
2024/04/10 06:06:15;;;;;;;4.18;1.58;;;;;;;6.16;100.00;97636.78;5405551;26;19999;-66
2024/04/10 06:08:42;;;;;;;4.57;1.90;;;;;;;6.17;100.00;97644.66;5400792;26;20004;-68
2024/04/10 06:11:08;;;;;;;6.30;2.47;;;;;;;6.21;100.00;97640.19;5419573;26;20019;-68
2024/04/10 06:13:34;;;;;;;5.78;2.20;;;;;;;6.29;100.00;97644.06;5426021;26;20006;-68
2024/04/10 06:16:03;;;;;;;4.10;1.58;;;;;;;6.33;100.00;97645.03;5429117;26;20017;-67
2024/04/10 06:18:28;;;;;;;5.53;2.20;;;;;;;6.33;100.00;97645.03;5418802;26;19999;-68
2024/04/10 06:20:58;;;;;;;7.25;3.97;;;;;;;6.23;100.00;97648.03;5469272;26;19996;-70
2024/04/10 06:23:24;;;;;;;7.95;5.13;;;;;;;6.41;100.00;97646.97;5456304;26;20590;-67
2024/04/10 06:25:53;;;;;;;14.88;10.43;;;;;;;6.73;100.00;97638.72;5486854;26;20009;-67
2024/04/10 06:28:18;;;;;;;6.83;4.67;;;;;;;6.85;100.00;97647.06;5477794;26;20002;-68
2024/04/10 06:30:44;;;;;;;5.03;2.80;;;;;;;6.82;100.00;97650.41;5442835;26;19998;-68
2024/04/10 06:33:13;;;;;;;7.80;2.78;;;;;;;6.56;100.00;97651.19;5462154;26;19998;-66
2024/04/10 06:35:38;;;;;;;8.38;7.07;;;;;;;6.38;100.00;97655.78;5465802;26;20031;-67
2024/04/10 06:38:04;;;;;;;6.65;2.85;;;;;;;6.53;100.00;97670.06;5442292;26;20434;-69
2024/04/10 06:40:30;;;;;;;4.95;2.50;;;;;;;6.37;100.00;97665.03;5438046;26;20078;-68
2024/04/10 06:42:56;;;;;;;4.13;2.30;;;;;;;6.03;100.00;97658.38;5468598;26;19998;-71
2024/04/10 06:45:22;;;;;;;4.35;1.75;;;;;;;6.04;100.00;97662.69;5462798;26;20634;-67
2024/04/10 06:47:47;;;;;;;4.28;2.22;;;;;;;6.00;100.00;97667.16;5470248;26;20010;-68
2024/04/10 06:50:13;;;;;;;4.18;1.80;;;;;;;6.18;100.00;97662.59;5459744;26;20042;-68
2024/04/10 06:52:39;;;;;;;6.63;1.73;;;;;;;6.40;100.00;97667.13;5469241;26;20006;-68
2024/04/10 06:55:05;;;;;;;3.97;1.70;;;;;;;6.57;100.00;97673.75;5463080;26;19998;-67
2024/04/10 06:57:31;;;;;;;2.65;1.60;;;;;;;6.70;100.00;97681.78;5437396;26;19998;-69
2024/04/10 06:59:58;;;;;;;3.20;1.60;;;;;;;6.76;100.00;97677.00;5467528;26;20440;-68
2024/04/10 07:02:24;;;;;;;4.22;1.90;;;;;;;6.93;100.00;97675.41;5411876;26;20004;-67
2024/04/10 07:04:50;;;;;;;4.50;2.22;;;;;;;7.18;100.00;97671.91;5470599;26;20344;-67
2024/04/10 07:07:15;;;;;;;5.13;2.08;;;;;;;7.29;100.00;97680.56;5461343;26;19995;-67
2024/04/10 07:09:41;;;;;;;6.40;2.40;;;;;;;7.73;100.00;97670.41;5469440;26;20070;-67
2024/04/10 07:12:07;;;;;;;3.70;2.03;;;;;;;7.76;100.00;97672.50;5461923;26;20435;-70
2024/04/10 07:14:36;;;;;;;3.33;2.05;;;;;;;7.59;100.00;97684.22;5470772;26;20013;-70
2024/04/10 07:17:04;;;;;;;2.90;2.20;;;;;;;7.68;100.00;97683.41;5466742;26;20456;-67
2024/04/10 07:19:34;;;;;;;5.05;2.40;;;;;;;7.77;100.00;97686.94;5444965;26;20348;-68
2024/04/10 07:22:03;;;;;;;3.58;2.40;;;;;;;7.92;100.00;97686.41;5470401;26;20002;-67
2024/04/10 07:24:28;;;;;;;4.75;1.70;;;;;;;7.94;100.00;97686.91;5471162;26;19998;-68
2024/04/10 07:26:53;;;;;;;2.60;1.20;;;;;;;7.68;100.00;97686.16;5470816;26;20029;-68
2024/04/10 07:29:19;;;;;;;10.38;1.50;;;;;;;7.46;100.00;97691.44;5461800;26;20013;-68
2024/04/10 07:31:44;;;;;;;5.85;1.23;;;;;;;7.47;100.00;97689.53;5437158;26;20025;-68
2024/04/10 07:34:14;;;;;;;2.67;1.40;;;;;;;7.34;100.00;97696.75;5463169;26;19998;-67
2024/04/10 07:36:41;;;;;;;3.17;1.42;;;;;;;7.54;100.00;97697.22;5470429;26;20012;-67
2024/04/10 07:39:07;;;;;;;3.83;1.50;;;;;;;7.68;100.00;97699.78;5451747;26;19995;-68
2024/04/10 07:41:33;;;;;;;3.97;1.10;;;;;;;7.44;100.00;97696.44;5459017;26;19994;-69
2024/04/10 07:43:58;;;;;;;4.72;1.40;;;;;;;7.26;100.00;97701.09;5458764;26;20009;-67
2024/04/10 07:46:24;;;;;;;4.28;1.40;;;;;;;7.17;100.00;97699.50;5446665;26;19998;-68
2024/04/10 07:48:54;;;;;;;5.25;2.03;;;;;;;7.36;100.00;97697.22;5468987;26;20449;-67
2024/04/10 07:51:20;;;;;;;5.82;1.60;;;;;;;7.86;100.00;97701.34;5460746;26;20002;-67
2024/04/10 07:53:47;;;;;;;4.32;1.70;;;;;;;8.21;100.00;97706.69;5469284;26;20006;-67
2024/04/10 07:56:12;;;;;;;8.50;2.00;;;;;;;8.49;100.00;97707.09;5463166;26;20074;-67
2024/04/10 07:58:39;;;;;;;2.70;1.00;;;;;;;8.97;100.00;97703.16;5467486;26;20006;-69
2024/04/10 08:01:05;;;;;;;6.30;1.30;;;;;;;8.86;100.00;97707.41;5457910;26;20543;-66
2024/04/10 08:03:31;;;;;;;5.03;1.30;;;;;;;8.73;100.00;97717.44;5453890;26;19994;-67
2024/04/10 08:05:58;;;;;;;3.30;1.83;;;;;;;8.63;100.00;97717.03;5467867;26;19998;-68
2024/04/10 08:08:25;;;;;;;3.05;1.38;;;;;;;8.06;100.00;97718.94;5459543;26;20013;-69
2024/04/10 08:11:00;;;;;;;2.47;1.20;;;;;;;7.82;100.00;97714.03;5468751;26;20074;-69
2024/04/10 08:13:26;;;;;;;5.40;1.63;;;;;;;7.54;100.00;97722.56;5460341;26;20009;-68
2024/04/10 08:16:01;;;;;;;3.30;1.50;;;;;;;7.78;100.00;97719.34;5470687;26;19994;-69
2024/04/10 08:18:28;;;;;;;3.63;1.52;;;;;;;7.90;100.00;97723.31;5418419;26;20049;-67
2024/04/10 08:21:03;;;;;;;3.28;1.33;;;;;;;7.96;100.00;97722.00;5459232;26;19994;-67
2024/04/10 08:23:30;;;;;;;2.60;1.50;;;;;;;7.68;100.00;97736.03;5468979;26;20074;-68
2024/04/10 08:25:56;;;;;;;5.75;1.20;;;;;;;7.28;100.00;97744.38;5469848;26;20006;-69
2024/04/10 08:28:24;;;;;;;1.60;1.15;;;;;;;7.43;100.00;97749.31;5467105;26;19994;-67
2024/04/10 08:30:49;;;;;;;1.65;1.20;;;;;;;7.55;100.00;97745.97;5481611;26;20018;-68
2024/04/10 08:33:15;;;;;;;3.00;1.30;;;;;;;7.54;100.00;97749.03;5470561;26;20005;-67
2024/04/10 08:35:42;;;;;;;2.13;1.50;;;;;;;7.40;100.00;97760.91;5449538;26;20007;-67
2024/04/10 08:38:07;;;;;;;2.22;1.10;;;;;;;7.34;100.00;97772.25;5458928;26;20068;-68
2024/04/10 08:40:37;;;;;;;2.85;1.60;;;;;;;7.35;100.00;97779.34;5444682;26;20006;-68
2024/04/10 08:43:06;;;;;;;5.72;1.90;;;;;;;7.74;100.00;97780.28;5455851;26;20450;-69
2024/04/10 08:45:31;;;;;;;4.18;2.25;;;;;;;7.75;100.00;97790.88;5454501;26;19998;-68
2024/04/10 08:47:59;;;;;;;3.30;1.98;;;;;;;7.80;100.00;97795.38;5467765;26;19998;-67
2024/04/10 08:50:25;;;;;;;4.38;1.50;;;;;;;7.91;100.00;97804.84;5458155;26;20002;-68
2024/04/10 08:52:53;;;;;;;2.40;1.50;;;;;;;8.16;100.00;97810.59;5438068;26;19999;-69
2024/04/10 08:55:18;;;;;;;4.32;2.10;;;;;;;8.30;100.00;97824.03;5451448;26;20025;-68
2024/04/10 08:57:44;;;;;;;4.75;2.20;;;;;;;8.54;100.00;97809.91;5453309;26;20458;-67
2024/04/10 09:00:10;;;;;;;4.05;1.35;;;;;;;8.28;100.00;97826.28;5459985;26;20013;-68
2024/04/10 09:02:36;;;;;;;7.15;2.10;;;;;;;7.94;100.00;97826.03;5458878;26;19995;-67
2024/04/10 09:05:02;;;;;;;6.22;2.20;;;;;;;7.94;100.00;97828.75;5464999;26;19998;-68
2024/04/10 09:07:27;;;;;;;7.75;2.30;;;;;;;8.16;100.00;97822.31;5453442;26;20084;-67
2024/04/10 09:09:53;;;;;;;3.53;1.83;;;;;;;8.04;100.00;97822.94;5454524;26;19998;-68
2024/04/10 09:12:23;;;;;;;4.35;1.58;;;;;;;8.02;100.00;97829.88;5433499;26;20014;-68
2024/04/10 09:14:48;;;;;;;3.58;1.83;;;;;;;8.00;100.00;97822.00;5490594;26;20013;-70
2024/04/10 09:17:17;;;;;;;4.97;2.58;;;;;;;8.14;100.00;97816.38;5466220;26;20002;-68
2024/04/10 09:19:42;;;;;;;4.07;1.48;;;;;;;8.15;100.00;97820.69;5473242;26;20002;-67
2024/04/10 09:22:11;;;;;;;4.88;1.60;;;;;;;8.63;100.00;97823.53;5431661;26;19999;-68
2024/04/10 09:24:36;;;;;;;2.97;1.50;;;;;;;9.04;100.00;97822.06;5438228;26;20007;-67
2024/04/10 09:27:10;;;;;;;3.15;1.20;;;;;;;9.86;100.00;97832.66;5459664;26;20443;-67
2024/04/10 09:29:35;;;;;;;3.42;1.27;;;;;;;9.76;100.00;97823.72;5436073;26;19998;-68
2024/04/10 09:32:07;;;;;;;2.95;1.23;;;;;;;9.95;100.00;97817.75;5434822;26;20366;-68
2024/04/10 09:34:34;;;;;;;8.63;1.45;;;;;;;9.88;100.00;97816.69;5460933;26;20442;-66
2024/04/10 09:37:05;;;;;;;2.35;1.20;;;;;;;9.93;100.00;97816.50;5423657;26;20014;-68
2024/04/10 09:39:31;;;;;;;5.00;0.90;;;;;;;9.97;100.00;97811.94;5425604;26;20013;-67
2024/04/10 09:41:58;;;;;;;2.55;1.30;;;;;;;10.22;100.00;97823.00;5426300;26;19999;-67
2024/04/10 09:44:29;;;;;;;3.88;1.55;;;;;;;10.00;100.00;97819.50;5397627;26;20537;-69
2024/04/10 09:46:59;;;;;;;2.88;1.25;;;;;;;10.18;100.00;97817.41;5448063;26;20019;-68
2024/04/10 09:49:28;;;;;;;5.38;1.50;;;;;;;10.22;100.00;97814.78;5460849;26;19998;-68
2024/04/10 09:51:58;;;;;;;4.45;1.42;;;;;;;10.71;100.00;97810.28;5429052;26;20003;-67
2024/04/10 09:54:26;;;;;;;4.20;1.10;;;;;;;10.86;100.00;97816.25;5454234;26;20002;-68
2024/04/10 09:56:52;;;;;;;4.68;1.10;;;;;;;11.14;100.00;97805.38;5435248;26;20010;-68
2024/04/10 09:59:19;;;;;;;2.78;1.08;;;;;;;10.66;100.00;97812.41;5459776;26;20030;-67
2024/04/10 10:01:46;;;;;;;5.20;1.85;;;;;;;10.70;100.00;97816.88;5450009;26;20074;-67
2024/04/10 10:04:11;;;;;;;3.15;1.42;;;;;;;10.64;100.00;97823.75;5446479;26;20035;-66
2024/04/10 10:06:37;;;;;;;2.88;1.20;;;;;;;10.63;100.00;97813.13;5469696;26;19998;-68
2024/04/10 10:09:02;;;;;;;3.28;1.40;;;;;;;11.03;100.00;97817.94;5466358;26;20449;-67
2024/04/10 10:11:28;;;;;;;6.05;1.40;;;;;;;10.96;100.00;97818.50;5473707;26;20074;-67
2024/04/10 10:14:04;;;;;;;3.75;1.40;;;;;;;10.69;100.00;97812.53;5452130;26;19995;-68
2024/04/10 10:16:33;;;;;;;5.40;1.40;;;;;;;10.94;100.00;97807.09;5459577;26;20042;-67
2024/04/10 10:19:00;;;;;;;3.40;1.30;;;;;;;10.46;100.00;97811.34;5469946;26;20007;-67
2024/04/10 10:21:27;;;;;;;2.05;1.20;;;;;;;10.50;100.00;97821.31;5444338;26;20009;-68
2024/04/10 10:23:56;;;;;;;3.58;1.50;;;;;;;10.45;100.00;97818.78;5438616;26;20572;-67
2024/04/10 10:26:22;;;;;;;3.88;1.50;;;;;;;10.54;100.00;97805.00;5455502;26;20414;-67
2024/04/10 10:28:49;;;;;;;5.05;1.98;;;;;;;10.40;100.00;97810.75;5439767;26;19995;-68
2024/04/10 10:31:18;;;;;;;4.22;1.70;;;;;;;10.40;100.00;97808.03;5422445;26;20080;-67
2024/04/10 10:33:44;;;;;;;7.82;2.72;;;;;;;10.68;100.00;97808.22;5468212;26;20017;-67
2024/04/10 10:36:09;;;;;;;3.85;1.77;;;;;;;10.52;100.00;97810.00;5464560;26;20663;-68
2024/04/10 10:38:35;;;;;;;6.10;1.75;;;;;;;10.66;100.00;97812.41;5468526;26;19998;-67
2024/04/10 10:41:12;;;;;;;5.18;1.85;;;;;;;11.02;100.00;97808.13;5429669;26;20000;-68
2024/04/10 10:43:38;;;;;;;4.38;1.75;;;;;;;11.18;100.00;97813.72;5460474;26;19998;-67
2024/04/10 10:46:05;;;;;;;7.38;1.75;;;;;;;10.69;100.00;97800.78;5475173;26;20074;-67
2024/04/10 10:48:31;;;;;;;3.65;1.70;;;;;;;10.79;100.00;97785.84;5459408;26;19994;-67
2024/04/10 10:50:57;;;;;;;3.95;1.55;;;;;;;10.86;100.00;97789.63;5484004;26;20014;-67
2024/04/10 10:53:22;;;;;;;3.30;1.77;;;;;;;10.84;100.00;97785.59;5471796;26;19998;-68
2024/04/10 10:55:53;;;;;;;4.20;2.03;;;;;;;10.72;100.00;97791.88;5479762;26;20535;-67
2024/04/10 10:58:18;;;;;;;4.18;1.85;;;;;;;10.78;100.00;97792.47;5465215;26;20022;-69
2024/04/10 11:00:44;;;;;;;4.95;2.38;;;;;;;11.19;100.00;97791.44;5465282;26;19995;-67
2024/04/10 11:03:11;;;;;;;4.50;1.80;;;;;;;11.17;100.00;97801.16;5464225;26;20348;-68
2024/04/10 11:05:37;;;;;;;4.18;2.05;;;;;;;11.59;100.00;97800.88;5447100;26;19994;-67
2024/04/10 11:08:03;;;;;;;5.57;1.80;;;;;;;11.73;100.00;97797.75;5454653;26;20005;-67
2024/04/10 11:10:29;;;;;;;3.42;1.90;;;;;;;12.22;100.00;97794.84;5441318;26;20583;-66
2024/04/10 11:13:02;;;;;;;3.40;1.40;;;;;;;13.15;96.09;97808.22;5469574;26;20013;-68
2024/04/10 11:15:28;;;;;;;5.43;2.00;;;;;;;12.76;100.00;97807.25;5433615;26;20009;-69
2024/04/10 11:18:04;;;;;;;3.95;1.70;;;;;;;13.28;92.73;97806.16;5471980;26;20030;-68
2024/04/10 11:20:33;;;;;;;4.45;1.70;;;;;;;13.52;87.47;97807.13;5475328;26;20008;-68
2024/04/10 11:23:03;;;;;;;4.45;1.80;;;;;;;13.23;89.56;97803.69;5471776;26;20006;-68
2024/04/10 11:25:29;;;;;;;6.63;2.00;;;;;;;12.47;93.03;97823.00;5469975;26;19998;-66
2024/04/10 11:27:58;;;;;;;8.90;2.20;;;;;;;11.35;100.00;97802.50;5469896;26;20006;-67